Time;durP1;ratioP1;P1;durP2;ratioP2;P2;SDS_P1;SDS_P2;PMS_P1;PMS_P2;Temp;Humidity;BMP_temperature;BMP_pressure;BME280_temperature;BME280_humidity;BME280_pressure;Samples;Min_cycle;Max_cycle;Signal;HPM_P1;HPM_P2
2023/02/20 00:01:31;;;;;;;10.97;3.67;;;9.10;99.90;;;;;;5061647;28;20123;-69
2023/02/20 00:03:57;;;;;;;14.45;4.63;;;9.10;99.90;;;;;;5043331;28;20103;-68
2023/02/20 00:06:23;;;;;;;10.43;3.80;;;9.00;99.90;;;;;;5060994;28;20470;-69
2023/02/20 00:08:48;;;;;;;8.10;3.90;;;9.00;99.90;;;;;;5060193;28;20029;-68
2023/02/20 00:11:14;;;;;;;8.87;3.23;;;9.00;99.90;;;;;;5057125;28;20029;-67
2023/02/20 00:13:47;;;;;;;16.57;4.47;;;8.80;99.90;;;;;;5057056;28;20022;-67
2023/02/20 00:16:13;;;;;;;11.63;4.95;;;8.90;99.90;;;;;;5057176;28;20013;-68
2023/02/20 00:18:39;;;;;;;9.13;3.63;;;8.80;99.90;;;;;;5057096;28;20032;-68
2023/02/20 00:21:05;;;;;;;10.70;4.80;;;8.60;99.90;;;;;;5053775;28;20036;-67
2023/02/20 00:23:34;;;;;;;11.55;3.85;;;8.60;99.90;;;;;;5076773;28;20470;-69
2023/02/20 00:26:00;;;;;;;11.88;3.95;;;8.50;99.90;;;;;;5075137;28;20033;-68
2023/02/20 00:28:26;;;;;;;14.90;4.00;;;8.60;99.90;;;;;;5058673;28;20032;-68
2023/02/20 00:30:51;;;;;;;11.33;4.73;;;8.50;99.90;;;;;;5077489;28;20025;-68
2023/02/20 00:33:17;;;;;;;14.17;4.57;;;8.60;99.90;;;;;;5081324;28;20024;-66
2023/02/20 00:35:42;;;;;;;10.83;4.40;;;8.60;99.90;;;;;;5062835;28;20070;-68
2023/02/20 00:38:08;;;;;;;12.00;4.70;;;8.60;99.90;;;;;;5080709;28;20113;-67
2023/02/20 00:40:33;;;;;;;11.47;3.60;;;8.60;99.90;;;;;;5058683;28;20059;-68
2023/02/20 00:42:59;;;;;;;9.43;4.17;;;8.70;99.90;;;;;;5057689;28;20059;-67
2023/02/20 00:45:24;;;;;;;13.53;4.13;;;8.70;99.90;;;;;;5075707;28;20461;-68
2023/02/20 00:47:50;;;;;;;13.50;4.37;;;8.50;99.90;;;;;;5075475;28;20039;-67
2023/02/20 00:50:16;;;;;;;10.43;4.10;;;8.40;99.90;;;;;;5058137;28;20020;-67
2023/02/20 00:52:42;;;;;;;13.07;4.80;;;8.50;99.90;;;;;;5073615;28;20377;-68
2023/02/20 00:55:08;;;;;;;16.53;4.47;;;8.40;99.90;;;;;;5055458;28;20032;-69
2023/02/20 00:57:33;;;;;;;11.05;4.10;;;8.30;99.90;;;;;;5055361;28;20501;-67
2023/02/20 00:59:59;;;;;;;10.47;4.53;;;8.20;99.90;;;;;;5055884;28;20041;-69
2023/02/20 01:02:25;;;;;;;12.93;4.77;;;8.20;99.90;;;;;;5056270;28;20060;-68
2023/02/20 01:04:51;;;;;;;11.00;4.47;;;8.10;99.90;;;;;;5055892;28;20127;-67
2023/02/20 01:07:16;;;;;;;9.52;4.13;;;8.20;99.90;;;;;;5038153;28;20056;-68
2023/02/20 01:09:42;;;;;;;10.00;4.07;;;8.30;99.90;;;;;;5055518;28;20032;-68
2023/02/20 01:12:07;;;;;;;13.30;4.30;;;8.30;99.90;;;;;;5037406;28;20025;-68
2023/02/20 01:14:33;;;;;;;9.87;3.90;;;8.30;99.90;;;;;;5037581;28;20040;-67
2023/02/20 01:16:59;;;;;;;11.73;3.90;;;8.30;99.90;;;;;;5055121;28;20347;-67
2023/02/20 01:19:24;;;;;;;10.13;4.00;;;8.20;99.90;;;;;;5055050;28;20271;-68
2023/02/20 01:21:50;;;;;;;14.03;4.23;;;8.20;99.90;;;;;;5037113;28;20120;-68
2023/02/20 01:24:16;;;;;;;14.17;4.67;;;8.20;99.90;;;;;;5054580;28;20090;-68
2023/02/20 01:26:43;;;;;;;10.80;4.20;;;8.20;99.90;;;;;;5054982;28;20759;-68
2023/02/20 01:29:09;;;;;;;13.80;4.53;;;8.30;99.90;;;;;;5037624;28;20531;-68
2023/02/20 01:31:35;;;;;;;9.13;4.10;;;8.20;99.90;;;;;;5037520;28;20084;-67
2023/02/20 01:34:00;;;;;;;12.50;3.87;;;8.20;99.90;;;;;;5055462;28;20025;-67
2023/02/20 01:36:26;;;;;;;11.53;4.00;;;8.10;99.90;;;;;;5054229;28;20266;-67
2023/02/20 01:38:52;;;;;;;8.43;3.43;;;8.20;99.90;;;;;;5055597;28;20021;-68
2023/02/20 01:41:19;;;;;;;11.65;3.78;;;8.20;99.90;;;;;;5056784;28;20044;-67
2023/02/20 01:43:45;;;;;;;;;;;8.10;99.90;;;;;;5057315;28;20032;-67
2023/02/20 01:46:25;;;;;;;9.25;3.65;;;8.10;99.90;;;;;;5056238;28;19931;-67
2023/02/20 01:48:53;;;;;;;9.45;3.70;;;8.10;99.90;;;;;;5056334;28;20492;-67
2023/02/20 01:51:19;;;;;;;12.68;5.05;;;8.10;99.90;;;;;;5055126;28;20021;-67
2023/02/20 01:53:44;;;;;;;10.67;3.50;;;8.20;99.90;;;;;;5054783;28;20021;-67
2023/02/20 01:56:11;;;;;;;10.90;4.13;;;8.10;99.90;;;;;;5054707;28;20032;-67
2023/02/20 01:58:41;;;;;;;17.77;3.97;;;8.10;99.90;;;;;;5055272;28;20367;-67
2023/02/20 02:01:07;;;;;;;10.20;3.85;;;8.00;99.90;;;;;;5054804;28;20021;-67
2023/02/20 02:03:36;;;;;;;10.30;3.92;;;8.00;99.90;;;;;;5054990;28;20040;-67
2023/02/20 02:06:06;;;;;;;13.60;4.43;;;8.00;99.90;;;;;;5054790;28;20032;-67
2023/02/20 02:08:34;;;;;;;9.20;3.95;;;7.90;99.90;;;;;;5036675;28;20052;-67
2023/02/20 02:11:07;;;;;;;10.15;3.92;;;7.90;99.90;;;;;;5054246;28;20017;-67
2023/02/20 02:13:35;;;;;;;12.07;4.00;;;7.80;99.90;;;;;;5054594;28;20053;-67
2023/02/20 02:16:40;;;;;;;13.25;4.55;;;7.90;99.90;;;;;;5036452;28;20136;-67
2023/02/20 02:19:31;;;;;;;10.02;3.78;;;7.80;99.90;;;;;;5055140;28;20032;-67
2023/02/20 02:22:21;;;;;;;14.95;4.30;;;7.70;99.90;;;;;;5055363;28;20032;-68
2023/02/20 02:25:07;;;;;;;12.23;4.28;;;7.70;99.90;;;;;;5036838;28;20375;-67
2023/02/20 02:28:06;;;;;;;8.85;3.85;;;7.60;99.90;;;;;;5053612;28;20029;-67
2023/02/20 02:30:38;;;;;;;14.15;4.22;;;7.70;99.90;;;;;;5054862;28;20067;-68
2023/02/20 02:33:38;;;;;;;14.93;4.65;;;7.80;99.90;;;;;;5053916;28;20021;-68
2023/02/20 02:36:13;;;;;;;9.63;4.10;;;7.90;99.90;;;;;;5035793;28;20040;-67
2023/02/20 02:39:01;;;;;;;10.52;4.07;;;7.90;99.90;;;;;;5035705;28;20433;-67
2023/02/20 02:42:08;;;;;;;11.75;4.32;;;7.90;99.90;;;;;;5053378;28;20470;-67
2023/02/20 02:45:21;;;;;;;13.85;4.50;;;7.80;99.90;;;;;;5053604;28;20029;-67
2023/02/20 02:47:55;;;;;;;10.90;4.28;;;7.70;99.90;;;;;;4953388;28;20070;-67
2023/02/20 02:50:35;;;;;;;10.15;4.70;;;7.80;99.90;;;;;;4957893;29;20027;-67
2023/02/20 02:53:02;;;;;;;11.60;4.28;;;7.80;99.90;;;;;;4962481;28;20074;-66
2023/02/20 02:55:32;;;;;;;10.30;4.18;;;7.70;99.90;;;;;;4977400;28;20019;-67
2023/02/20 02:57:59;;;;;;;12.10;4.45;;;7.70;99.90;;;;;;4977571;28;20049;-68
2023/02/20 03:00:31;;;;;;;;;;;7.60;99.90;;;;;;4977070;28;20038;-68
2023/02/20 03:03:12;;;;;;;10.07;3.83;;;7.60;99.90;;;;;;4975339;28;19977;-67
2023/02/20 03:05:47;;;;;;;12.73;4.05;;;7.60;99.90;;;;;;4959932;28;20507;-66
2023/02/20 03:08:32;;;;;;;9.40;4.22;;;7.70;99.90;;;;;;4976169;28;20403;-67
2023/02/20 03:11:07;;;;;;;10.88;4.03;;;7.60;99.90;;;;;;4965432;28;20171;-67
2023/02/20 03:16:50;;;;;;;14.93;5.15;;;7.50;99.90;;;;;;4976471;28;20101;-66
2023/02/20 03:19:23;;;;;;;10.32;4.30;;;7.50;99.90;;;;;;4941071;29;20131;-68
2023/02/20 03:21:50;;;;;;;9.93;4.40;;;7.40;99.90;;;;;;4956624;28;20035;-67
2023/02/20 03:24:18;;;;;;;;;;;7.40;99.90;;;;;;5040429;28;20045;-68
2023/02/20 03:26:45;;;;;;;11.73;4.65;;;7.40;99.90;;;;;;5078063;28;20392;-67
2023/02/20 03:29:18;;;;;;;9.38;4.28;;;7.50;99.90;;;;;;5078248;28;20466;-67
2023/02/20 03:43:20;;;;;;;10.90;4.82;;;7.40;99.90;;;;;;5059628;28;20054;-67
2023/02/20 03:45:46;;;;;;;12.23;4.80;;;7.40;99.90;;;;;;5076056;28;20028;-67
2023/02/20 03:48:21;;;;;;;15.80;4.68;;;7.40;99.90;;;;;;5046003;28;20036;-67
2023/02/20 03:53:32;;;;;;;9.63;4.63;;;7.40;99.90;;;;;;5056810;28;20497;-67
2023/02/20 03:55:59;;;;;;;;;;;7.40;99.90;;;;;;5040758;28;20088;-68
2023/02/20 03:58:26;;;;;;;;;;;7.40;99.90;;;;;;5057311;28;19916;-67
2023/02/20 04:00:56;;;;;;;10.82;4.30;;;7.50;99.90;;;;;;5038821;28;19909;-67
2023/02/20 04:03:27;;;;;;;14.80;5.15;;;7.40;99.90;;;;;;5072388;28;20036;-67
2023/02/20 04:05:56;;;;;;;9.82;4.43;;;7.30;99.90;;;;;;5051412;28;20028;-68
2023/02/20 04:08:34;;;;;;;10.55;4.72;;;7.40;99.90;;;;;;5056546;28;20078;-68
2023/02/20 04:11:25;;;;;;;11.88;4.32;;;7.40;99.90;;;;;;5038177;28;20096;-68
2023/02/20 04:13:53;;;;;;;13.38;5.38;;;7.30;99.90;;;;;;5040157;28;20405;-68
2023/02/20 04:16:20;;;;;;;12.25;4.97;;;7.20;99.90;;;;;;5063606;28;20073;-67
2023/02/20 04:18:45;;;;;;;9.43;4.45;;;7.30;99.90;;;;;;5062093;28;20028;-67
2023/02/20 04:21:20;;;;;;;12.23;4.57;;;7.30;99.90;;;;;;5080285;28;20035;-67
2023/02/20 04:23:49;;;;;;;12.25;4.55;;;7.30;99.90;;;;;;5060167;28;20547;-67
2023/02/20 04:26:18;;;;;;;10.40;4.57;;;7.20;99.90;;;;;;5076231;28;20025;-67
2023/02/20 04:28:45;;;;;;;12.60;4.95;;;7.30;99.90;;;;;;5055381;28;20551;-66
2023/02/20 04:31:13;;;;;;;10.40;4.95;;;7.30;99.90;;;;;;5057367;28;20029;-68
2023/02/20 04:33:38;;;;;;;12.43;5.20;;;7.20;99.90;;;;;;5056781;28;20029;-67
2023/02/20 04:36:04;;;;;;;11.37;4.77;;;7.20;99.90;;;;;;5039021;28;20104;-68
2023/02/20 04:38:30;;;;;;;12.13;5.32;;;7.10;99.90;;;;;;5068882;28;20032;-67
2023/02/20 04:40:55;;;;;;;15.27;4.83;;;7.20;99.90;;;;;;5077140;28;20501;-67
2023/02/20 04:43:21;;;;;;;11.70;4.40;;;7.20;99.90;;;;;;5071314;28;20488;-66
2023/02/20 04:45:46;;;;;;;11.03;5.77;;;7.20;99.90;;;;;;5054330;28;20124;-67
2023/02/20 04:48:12;;;;;;;9.70;5.07;;;7.10;99.90;;;;;;5070645;28;20461;-66
2023/02/20 04:50:37;;;;;;;11.27;4.97;;;7.10;99.90;;;;;;5077254;28;20028;-68
2023/02/20 04:53:03;;;;;;;16.33;5.70;;;7.10;99.90;;;;;;5077351;28;20057;-67
2023/02/20 04:55:28;;;;;;;11.73;5.07;;;7.20;99.90;;;;;;5077273;28;20064;-67
2023/02/20 04:57:56;;;;;;;10.33;4.60;;;7.20;99.90;;;;;;5059338;28;20082;-68
2023/02/20 05:00:24;;;;;;;13.60;5.00;;;7.20;99.90;;;;;;5058208;28;20282;-67
2023/02/20 05:02:50;;;;;;;14.27;4.95;;;7.20;99.90;;;;;;5056800;28;20043;-67
2023/02/20 05:05:25;;;;;;;12.05;5.10;;;7.20;99.90;;;;;;5056794;28;20090;-69
2023/02/20 05:07:59;;;;;;;12.60;5.07;;;7.10;99.90;;;;;;5059678;28;20029;-67
2023/02/20 05:10:26;;;;;;;11.73;5.07;;;7.00;99.90;;;;;;5074778;28;20428;-68
2023/02/20 05:12:52;;;;;;;15.95;5.30;;;7.10;99.90;;;;;;5058599;28;20063;-68
2023/02/20 05:15:18;;;;;;;15.60;6.00;;;7.20;99.90;;;;;;5051706;28;20033;-67
2023/02/20 05:17:43;;;;;;;12.27;4.90;;;7.20;99.90;;;;;;5056842;28;20267;-67
2023/02/20 05:20:09;;;;;;;20.67;9.23;;;7.10;99.90;;;;;;5057158;28;20033;-68
2023/02/20 05:22:35;;;;;;;17.67;5.68;;;7.20;99.90;;;;;;5055828;28;20024;-68
2023/02/20 05:25:01;;;;;;;16.80;5.80;;;7.10;99.90;;;;;;5056119;28;20151;-67
2023/02/20 05:27:27;;;;;;;14.65;6.35;;;7.10;99.90;;;;;;5075008;28;20029;-67
2023/02/20 05:29:58;;;;;;;14.88;6.07;;;7.10;99.90;;;;;;5059163;28;20029;-68
2023/02/20 05:32:26;;;;;;;14.73;6.10;;;7.10;99.90;;;;;;5037156;28;20025;-69
2023/02/20 05:34:52;;;;;;;13.55;5.82;;;7.00;99.90;;;;;;5037323;28;20086;-69
2023/02/20 05:37:19;;;;;;;15.20;5.72;;;7.00;99.90;;;;;;5056052;28;20083;-67
2023/02/20 05:39:46;;;;;;;11.27;4.85;;;6.90;99.90;;;;;;5056478;28;20047;-68
2023/02/20 05:42:12;;;;;;;13.05;6.13;;;6.90;99.90;;;;;;5055518;28;20024;-67
2023/02/20 05:44:37;;;;;;;12.18;6.13;;;6.80;99.90;;;;;;5055544;28;20477;-67
2023/02/20 05:47:03;;;;;;;14.60;6.23;;;6.80;99.90;;;;;;5056901;28;20087;-67
2023/02/20 05:49:29;;;;;;;14.85;5.75;;;6.90;99.90;;;;;;5057384;28;20037;-68
2023/02/20 05:51:56;;;;;;;15.68;5.38;;;6.90;99.90;;;;;;5056113;28;20100;-68
2023/02/20 05:54:22;;;;;;;;;;;6.80;99.90;;;;;;5056732;28;20021;-67
2023/02/20 05:56:48;;;;;;;17.73;5.82;;;6.80;99.90;;;;;;5056154;28;19911;-66
2023/02/20 05:59:17;;;;;;;14.73;5.85;;;6.90;99.90;;;;;;5074128;28;20081;-67
2023/02/20 06:01:43;;;;;;;12.32;5.88;;;6.80;99.90;;;;;;5055030;28;20037;-68
2023/02/20 06:04:08;;;;;;;13.73;5.77;;;6.90;99.90;;;;;;5036968;28;20106;-68
2023/02/20 06:06:37;;;;;;;11.57;6.33;;;6.90;99.90;;;;;;5054700;28;20055;-68
2023/02/20 06:09:06;;;;;;;13.20;5.60;;;7.00;99.90;;;;;;5056059;28;20037;-69
2023/02/20 06:11:32;;;;;;;8.57;5.32;;;6.90;99.90;;;;;;5054407;28;20017;-68
2023/02/20 06:13:58;;;;;;;9.38;5.50;;;7.00;99.90;;;;;;5060112;28;20473;-67
2023/02/20 06:16:26;;;;;;;12.07;5.55;;;6.90;99.90;;;;;;5074794;28;20083;-68
2023/02/20 06:18:52;;;;;;;14.40;6.25;;;6.90;99.90;;;;;;5055284;28;20044;-67
2023/02/20 06:21:19;;;;;;;14.02;5.35;;;6.90;99.90;;;;;;5076226;28;20044;-67
2023/02/20 06:23:45;;;;;;;11.75;5.95;;;6.90;99.90;;;;;;5056517;28;20029;-68
2023/02/20 06:26:12;;;;;;;12.80;5.75;;;7.00;99.90;;;;;;5074876;28;20473;-67
2023/02/20 06:28:38;;;;;;;12.30;5.63;;;6.90;99.90;;;;;;5075371;28;20028;-68
2023/02/20 06:31:05;;;;;;;10.68;5.25;;;6.90;99.90;;;;;;5057901;28;20118;-68
2023/02/20 06:33:31;;;;;;;11.43;5.38;;;6.80;99.90;;;;;;5054687;28;20021;-68
2023/02/20 06:35:57;;;;;;;16.17;6.13;;;7.00;99.90;;;;;;5036099;28;20091;-68
2023/02/20 06:38:23;;;;;;;12.13;5.97;;;6.90;99.90;;;;;;5053834;28;20037;-68
2023/02/20 06:40:49;;;;;;;16.85;6.28;;;6.80;99.90;;;;;;5060564;28;20037;-68
2023/02/20 06:43:14;;;;;;;16.60;5.33;;;6.80;99.90;;;;;;5054232;28;20043;-67
2023/02/20 06:45:40;;;;;;;9.70;5.77;;;6.80;99.90;;;;;;5054582;28;20032;-68
2023/02/20 06:48:06;;;;;;;12.97;6.30;;;6.80;99.90;;;;;;5040327;28;20024;-68
2023/02/20 06:50:31;;;;;;;9.60;5.70;;;6.70;99.90;;;;;;5073362;28;20549;-67
2023/02/20 06:52:57;;;;;;;10.20;5.67;;;6.70;99.90;;;;;;5056718;28;20493;-68
2023/02/20 06:55:24;;;;;;;11.07;5.60;;;6.80;99.90;;;;;;5070946;28;20012;-69
2023/02/20 06:57:50;;;;;;;9.95;5.82;;;6.90;99.90;;;;;;5069437;28;20135;-68
2023/02/20 07:00:16;;;;;;;14.80;6.05;;;6.90;99.90;;;;;;5046345;28;20423;-69
2023/02/20 07:02:42;;;;;;;;;;;7.00;99.90;;;;;;5051469;28;20032;-68
2023/02/20 07:05:10;;;;;;;15.68;5.85;;;7.00;99.90;;;;;;5074440;28;19908;-69
2023/02/20 07:07:36;;;;;;;12.18;5.20;;;6.90;99.90;;;;;;5073667;28;20028;-69
2023/02/20 07:10:02;;;;;;;12.83;6.73;;;6.90;99.90;;;;;;5074139;28;20532;-67
2023/02/20 07:12:31;;;;;;;11.82;6.30;;;6.80;99.90;;;;;;5056739;28;20021;-71
2023/02/20 07:14:57;;;;;;;13.70;6.28;;;6.90;99.90;;;;;;5054739;28;20394;-71
2023/02/20 07:17:23;;;;;;;11.73;5.50;;;6.80;99.90;;;;;;5074705;28;20025;-76
2023/02/20 07:19:49;;;;;;;12.27;5.70;;;6.80;99.90;;;;;;5060760;28;20051;-73
2023/02/20 07:22:15;;;;;;;10.45;5.32;;;6.80;99.90;;;;;;5047393;28;20278;-73
2023/02/20 07:24:40;;;;;;;9.10;5.27;;;6.90;99.90;;;;;;5039337;28;20024;-72
2023/02/20 07:27:09;;;;;;;13.23;5.47;;;7.00;99.90;;;;;;5060518;28;20063;-76
2023/02/20 07:29:40;;;;;;;11.93;5.47;;;7.00;99.90;;;;;;5044116;28;20128;-76
2023/02/20 07:32:07;;;;;;;11.00;5.28;;;6.90;99.90;;;;;;5047614;28;20409;-64
2023/02/20 07:34:33;;;;;;;13.05;6.40;;;7.00;99.90;;;;;;5046121;28;20135;-64
2023/02/20 07:36:59;;;;;;;13.43;6.20;;;7.00;99.90;;;;;;5061333;28;20545;-73
2023/02/20 07:39:25;;;;;;;9.43;5.37;;;7.00;99.90;;;;;;5068561;28;20423;-74
2023/02/20 07:41:51;;;;;;;13.88;5.80;;;7.10;99.90;;;;;;5040424;28;20033;-71
2023/02/20 07:44:16;;;;;;;10.33;5.40;;;7.20;99.90;;;;;;5059008;28;20596;-71
2023/02/20 07:46:42;;;;;;;13.30;5.60;;;7.30;99.90;;;;;;5059256;28;20386;-71
2023/02/20 07:49:08;;;;;;;13.27;5.37;;;7.40;99.90;;;;;;5065009;28;20154;-71
2023/02/20 07:51:33;;;;;;;11.67;5.13;;;7.60;99.90;;;;;;5061478;28;20276;-72
2023/02/20 07:54:00;;;;;;;11.93;4.90;;;7.60;99.90;;;;;;5065644;28;20090;-71
2023/02/20 07:56:26;;;;;;;10.00;4.68;;;7.60;99.90;;;;;;5065044;28;20043;-74
2023/02/20 07:58:51;;;;;;;14.90;5.40;;;7.60;99.90;;;;;;5069269;28;20029;-76
2023/02/20 08:01:17;;;;;;;8.73;5.20;;;7.60;99.90;;;;;;5068279;28;20032;-73
2023/02/20 08:03:43;;;;;;;13.77;5.75;;;7.60;99.90;;;;;;5052715;28;20039;-73
2023/02/20 08:06:09;;;;;;;10.40;4.83;;;7.60;99.90;;;;;;5065991;28;20040;-74
2023/02/20 08:08:34;;;;;;;13.47;5.00;;;7.60;99.90;;;;;;5072271;28;20295;-72
2023/02/20 08:11:00;;;;;;;13.53;4.77;;;7.60;99.90;;;;;;5052610;28;20037;-74
2023/02/20 08:13:26;;;;;;;10.80;4.63;;;7.70;99.90;;;;;;5069326;28;20127;-74
2023/02/20 08:15:51;;;;;;;9.37;5.10;;;7.70;99.90;;;;;;5089349;28;20040;-74
2023/02/20 08:18:17;;;;;;;14.73;5.43;;;7.70;99.90;;;;;;5071238;28;20033;-74
2023/02/20 08:20:42;;;;;;;10.80;4.83;;;7.80;99.90;;;;;;5055942;28;20060;-73
2023/02/20 08:23:20;;;;;;;12.60;5.07;;;8.00;99.90;;;;;;5051381;28;20092;-73
2023/02/20 08:25:45;;;;;;;9.73;4.95;;;8.10;99.90;;;;;;5053711;28;20039;-74
2023/02/20 08:28:12;;;;;;;11.47;4.83;;;8.20;99.90;;;;;;5059882;28;20032;-72
2023/02/20 08:30:37;;;;;;;;;;;8.20;99.90;;;;;;5062295;28;20032;-75
2023/02/20 08:33:05;;;;;;;7.95;4.10;;;8.40;99.90;;;;;;5086947;28;19905;-74
2023/02/20 08:35:33;;;;;;;12.55;4.30;;;8.50;99.90;;;;;;5072527;28;20032;-77
2023/02/20 08:38:06;;;;;;;9.02;4.43;;;8.50;99.90;;;;;;5085510;28;20096;-73
2023/02/20 08:40:32;;;;;;;7.32;4.03;;;8.70;99.90;;;;;;5080733;28;20024;-73
2023/02/20 08:42:58;;;;;;;12.70;4.47;;;8.80;99.90;;;;;;5082265;28;20024;-74
2023/02/20 08:45:24;;;;;;;7.97;3.65;;;8.90;99.90;;;;;;5064550;28;20040;-74
2023/02/20 08:47:50;;;;;;;7.28;3.88;;;9.00;99.90;;;;;;5060824;28;20077;-73
2023/02/20 08:50:17;;;;;;;6.75;4.03;;;9.10;99.90;;;;;;5046324;28;20104;-74
2023/02/20 08:52:44;;;;;;;9.88;3.97;;;9.20;99.90;;;;;;5067816;28;20055;-74
2023/02/20 08:55:10;;;;;;;9.88;3.90;;;9.20;99.90;;;;;;5084282;28;20062;-76
2023/02/20 08:57:36;;;;;;;9.25;3.95;;;9.30;99.90;;;;;;5067502;28;20087;-75
2023/02/20 09:00:04;;;;;;;6.13;3.43;;;9.50;99.90;;;;;;5045387;28;20123;-74
2023/02/20 09:02:30;;;;;;;11.82;4.13;;;9.60;99.90;;;;;;5044554;28;20040;-73
2023/02/20 09:04:56;;;;;;;9.65;3.90;;;9.80;99.90;;;;;;5067900;28;20060;-73
2023/02/20 09:07:22;;;;;;;9.48;3.95;;;10.00;99.90;;;;;;5079431;28;20090;-75
2023/02/20 09:09:49;;;;;;;8.35;3.50;;;10.10;99.90;;;;;;5061490;28;20028;-74
2023/02/20 09:12:15;;;;;;;7.07;3.45;;;10.20;99.90;;;;;;5063006;28;20032;-76
2023/02/20 09:14:41;;;;;;;8.90;3.92;;;10.10;99.90;;;;;;5063046;28;20081;-76
2023/02/20 09:17:06;;;;;;;6.63;3.23;;;10.10;99.90;;;;;;5061610;28;20033;-73
2023/02/20 09:19:32;;;;;;;9.70;3.73;;;10.20;99.90;;;;;;5062561;28;20036;-75
2023/02/20 09:21:57;;;;;;;10.50;4.00;;;10.10;99.90;;;;;;5081074;28;20089;-72
2023/02/20 09:24:23;;;;;;;6.90;3.10;;;10.10;99.90;;;;;;5080448;28;20028;-72
2023/02/20 09:26:49;;;;;;;9.70;3.15;;;10.20;99.90;;;;;;5057531;28;20028;-74
2023/02/20 09:29:14;;;;;;;8.17;3.03;;;10.40;99.90;;;;;;5060151;28;20092;-74
2023/02/20 09:31:40;;;;;;;7.57;2.97;;;10.50;99.90;;;;;;5080916;28;20020;-75
2023/02/20 09:34:05;;;;;;;7.20;3.00;;;10.70;99.90;;;;;;5058232;28;20078;-74
2023/02/20 09:36:31;;;;;;;7.87;2.60;;;11.10;99.90;;;;;;5049608;28;20024;-75
2023/02/20 09:38:57;;;;;;;9.40;3.17;;;13.40;99.90;;;;;;5056948;28;20024;-65
2023/02/20 09:41:48;;;;;;;6.53;2.90;;;15.70;99.90;;;;;;5073869;28;20036;-65
2023/02/20 09:44:34;;;;;;;6.90;2.65;;;16.70;98.30;;;;;;5072702;28;20025;-65
2023/02/20 09:49:33;;;;;;;8.15;2.95;;;17.60;95.40;;;;;;5072360;28;20049;-64
2023/02/20 09:52:03;;;;;;;5.38;2.63;;;17.80;94.90;;;;;;5075535;28;20020;-62
2023/02/20 09:54:40;;;;;;;7.35;3.03;;;17.30;94.70;;;;;;5056721;28;20439;-61
2023/02/20 09:57:15;;;;;;;7.47;2.67;;;17.10;95.00;;;;;;5070938;28;20381;-67
2023/02/20 10:00:03;;;;;;;5.75;2.45;;;17.30;94.90;;;;;;5060631;28;20029;-66
2023/02/20 10:02:53;;;;;;;7.38;2.70;;;18.20;94.00;;;;;;5073477;28;20041;-69
2023/02/20 10:05:25;;;;;;;7.72;2.53;;;19.00;92.40;;;;;;5060042;28;20039;-69
2023/02/20 10:07:52;;;;;;;10.63;3.00;;;18.60;92.40;;;;;;5075969;28;20075;-66
2023/02/20 10:10:20;;;;;;;6.72;2.58;;;19.30;92.00;;;;;;5075178;28;20027;-66
2023/02/20 10:12:57;;;;;;;6.82;2.38;;;19.70;91.10;;;;;;5073851;28;20020;-65
2023/02/20 10:15:25;;;;;;;6.20;2.67;;;20.10;90.40;;;;;;5074196;28;20567;-68
2023/02/20 10:18:15;;;;;;;4.57;2.10;;;20.50;89.90;;;;;;5055753;28;20116;-68
2023/02/20 10:20:46;;;;;;;8.55;1.98;;;20.60;87.60;;;;;;5055488;28;20025;-66
2023/02/20 10:23:32;;;;;;;7.85;2.60;;;20.90;86.90;;;;;;5054735;28;20028;-66
2023/02/20 10:26:03;;;;;;;6.03;2.42;;;21.90;83.70;;;;;;5054474;28;20078;-65
2023/02/20 10:28:29;;;;;;;9.90;2.70;;;22.10;82.30;;;;;;5070874;28;20020;-66
2023/02/20 10:31:19;;;;;;;9.50;2.55;;;22.90;80.40;;;;;;5073508;28;20067;-67
2023/02/20 10:33:51;;;;;;;4.07;1.80;;;22.90;79.00;;;;;;5077183;28;20099;-69
2023/02/20 10:36:35;;;;;;;6.63;2.88;;;23.40;77.30;;;;;;5074388;28;20031;-67
2023/02/20 10:39:09;;;;;;;12.05;3.30;;;23.90;76.00;;;;;;5073836;28;20028;-67
2023/02/20 10:41:59;;;;;;;6.35;2.72;;;23.80;74.60;;;;;;5073195;28;20056;-70
2023/02/20 10:44:50;;;;;;;7.43;2.45;;;23.50;74.30;;;;;;5073628;28;20048;-69
2023/02/20 10:47:31;;;;;;;9.52;2.85;;;23.40;75.10;;;;;;5072679;28;20056;-70
2023/02/20 10:50:22;;;;;;;8.32;2.67;;;23.70;74.30;;;;;;5072575;28;20016;-70
2023/02/20 10:53:14;;;;;;;7.68;2.83;;;24.40;72.10;;;;;;5063003;28;20028;-69
2023/02/20 10:56:26;;;;;;;6.00;2.63;;;23.90;72.40;;;;;;5072785;28;20021;-69
2023/02/20 10:58:52;;;;;;;6.82;3.17;;;24.40;71.90;;;;;;4994278;28;20150;-70
2023/02/20 11:01:21;;;;;;;5.63;2.47;;;24.40;71.10;;;;;;4990238;28;20115;-67
2023/02/20 11:04:08;;;;;;;7.90;3.17;;;24.50;71.00;;;;;;4974049;28;20519;-70
2023/02/20 11:06:41;;;;;;;8.88;2.70;;;25.10;70.20;;;;;;4958134;28;20377;-71
2023/02/20 11:09:09;;;;;;;7.18;2.72;;;25.30;69.20;;;;;;4973227;28;20034;-70
2023/02/20 11:11:42;;;;;;;9.60;4.40;;;25.10;69.40;;;;;;4976803;28;20026;-70
2023/02/20 11:14:32;;;;;;;6.85;3.33;;;24.80;69.40;;;;;;4976706;28;20027;-65
2023/02/20 11:17:21;;;;;;;7.25;3.38;;;24.60;69.80;;;;;;4981656;28;20129;-69
2023/02/20 11:19:46;;;;;;;7.93;3.20;;;23.20;70.90;;;;;;4990162;28;20176;-67
2023/02/20 11:22:13;;;;;;;10.80;4.32;;;20.30;75.70;;;;;;4977402;28;20039;-67
2023/02/20 11:24:41;;;;;;;7.22;3.67;;;18.40;80.50;;;;;;4977292;28;20126;-67
2023/02/20 11:27:13;;;;;;;8.73;3.78;;;17.00;84.30;;;;;;4991270;28;20045;-67
2023/02/20 11:29:50;;;;;;;9.90;3.80;;;16.00;88.30;;;;;;5032499;28;20044;-67
2023/02/20 11:32:46;;;;;;;12.65;3.58;;;15.30;90.70;;;;;;5041991;28;20017;-67
2023/02/20 11:35:18;;;;;;;11.00;4.05;;;14.50;92.50;;;;;;4981778;28;20094;-67
2023/02/20 11:37:49;;;;;;;11.15;3.67;;;14.00;93.70;;;;;;4979408;28;20077;-67
2023/02/20 11:40:22;;;;;;;11.07;5.43;;;13.80;94.80;;;;;;4996342;28;20038;-68
2023/02/20 11:42:49;;;;;;;7.65;3.90;;;13.70;95.70;;;;;;4995746;28;20398;-68
2023/02/20 11:45:21;;;;;;;7.50;3.70;;;13.60;96.10;;;;;;4996426;28;20093;-66
2023/02/20 11:48:06;;;;;;;10.75;4.53;;;13.70;96.60;;;;;;4996146;28;20042;-65
2023/02/20 11:50:45;;;;;;;9.63;4.70;;;13.80;96.70;;;;;;4969945;28;20027;-65
2023/02/20 11:53:27;;;;;;;8.85;3.58;;;13.80;97.00;;;;;;4996464;28;20030;-65
2023/02/20 11:56:14;;;;;;;8.32;4.07;;;13.70;97.10;;;;;;4997043;28;20058;-64
2023/02/20 11:58:41;;;;;;;10.63;4.32;;;13.60;97.40;;;;;;4980682;28;20057;-64
2023/02/20 12:01:30;;;;;;;11.88;4.40;;;13.60;97.30;;;;;;4996220;28;20038;-64
2023/02/20 12:03:58;;;;;;;10.05;3.97;;;13.50;97.80;;;;;;4997509;28;20114;-65
2023/02/20 12:06:32;;;;;;;8.27;3.83;;;13.50;98.00;;;;;;4979380;28;20041;-65
2023/02/20 12:09:00;;;;;;;10.38;4.22;;;13.50;98.10;;;;;;4994374;28;20041;-65
2023/02/20 12:11:27;;;;;;;11.52;4.10;;;13.50;98.10;;;;;;5022730;28;20033;-65
2023/02/20 12:13:57;;;;;;;10.27;4.10;;;13.60;98.10;;;;;;5056765;28;20021;-64
2023/02/20 12:16:37;;;;;;;12.43;4.13;;;13.70;98.20;;;;;;5054627;28;20024;-64
2023/02/20 12:19:40;;;;;;;12.15;4.63;;;13.70;97.80;;;;;;5057957;28;20059;-65
2023/02/20 12:22:25;;;;;;;7.38;4.10;;;13.60;98.10;;;;;;5074605;28;20031;-65
2023/02/20 12:25:00;;;;;;;10.35;4.15;;;13.60;98.20;;;;;;5076445;28;20048;-65
2023/02/20 12:28:00;;;;;;;9.63;3.47;;;13.50;98.30;;;;;;5074284;28;20396;-66
2023/02/20 12:30:37;;;;;;;11.57;4.63;;;13.70;98.60;;;;;;5075517;28;20425;-66
2023/02/20 12:33:14;;;;;;;8.70;3.92;;;13.80;98.40;;;;;;5059341;28;20082;-68
2023/02/20 12:36:14;;;;;;;12.00;4.70;;;13.80;98.40;;;;;;5079755;28;20107;-69
2023/02/20 12:38:49;;;;;;;13.55;4.20;;;13.90;98.00;;;;;;5048674;28;20029;-68
2023/02/20 12:41:40;;;;;;;9.10;3.80;;;13.80;98.10;;;;;;5055706;28;20099;-67
2023/02/20 12:44:20;;;;;;;12.80;5.88;;;13.90;98.20;;;;;;5055546;28;20021;-65
2023/02/20 12:47:10;;;;;;;10.07;4.18;;;14.10;98.40;;;;;;5057388;28;20033;-67
2023/02/20 12:49:51;;;;;;;12.65;4.40;;;14.00;97.80;;;;;;5065716;28;20090;-68
2023/02/20 12:52:33;;;;;;;12.10;4.38;;;14.00;97.90;;;;;;5057615;28;20024;-67
2023/02/20 12:55:21;;;;;;;10.20;4.68;;;14.10;98.10;;;;;;5055468;28;20369;-70
2023/02/20 12:58:02;;;;;;;12.73;4.90;;;14.20;97.90;;;;;;5057065;28;20032;-68
2023/02/20 13:00:39;;;;;;;7.57;4.28;;;14.20;98.00;;;;;;5076247;28;20017;-68
2023/02/20 13:03:10;;;;;;;15.25;7.50;;;14.20;97.80;;;;;;5056156;28;20025;-74
2023/02/20 13:05:41;;;;;;;12.43;4.57;;;14.20;99.90;;;;;;5056326;28;20452;-72
2023/02/20 13:08:14;;;;;;;12.15;4.63;;;14.40;98.00;;;;;;5055462;28;20108;-66
2023/02/20 13:11:05;;;;;;;11.13;3.60;;;14.40;97.90;;;;;;5056986;28;20473;-66
2023/02/20 13:13:54;;;;;;;11.35;3.97;;;14.50;97.70;;;;;;5055519;28;20028;-71
2023/02/20 13:16:31;;;;;;;9.50;4.82;;;14.50;97.60;;;;;;5037174;28;20029;-68
2023/02/20 13:19:14;;;;;;;11.85;4.38;;;14.60;97.50;;;;;;5061894;28;20393;-67
2023/02/20 13:21:40;;;;;;;12.10;4.18;;;14.60;97.10;;;;;;5063191;28;20087;-67
2023/02/20 13:24:20;;;;;;;10.70;4.30;;;14.70;97.00;;;;;;5055112;28;20036;-70
2023/02/20 13:26:51;;;;;;;7.63;3.72;;;15.00;96.80;;;;;;5062686;28;20103;-70
2023/02/20 13:29:19;;;;;;;10.80;4.07;;;15.00;96.90;;;;;;5075235;28;20094;-70
2023/02/20 13:31:50;;;;;;;10.98;4.47;;;14.80;96.80;;;;;;5078532;28;20017;-71